createdAt,value
2022-11-03T00:00:50.554Z,7.59
2022-11-03T00:02:53.375Z,7.59
2022-11-03T00:04:56.225Z,4.84
2022-11-03T00:06:57.965Z,7.57
2022-11-03T00:09:04.261Z,7.03
2022-11-03T00:11:12.197Z,4.60
2022-11-03T00:13:14.951Z,7.57
2022-11-03T00:15:17.742Z,1.24
2022-11-03T00:17:20.517Z,7.75
2022-11-03T00:19:23.305Z,7.87
2022-11-03T00:21:26.160Z,7.90
2022-11-03T00:23:30.904Z,6.63
2022-11-03T00:25:34.954Z,6.67
2022-11-03T00:27:37.742Z,7.90
2022-11-03T00:29:40.462Z,7.48
2022-11-03T00:31:45.456Z,6.57
2022-11-03T00:33:49.182Z,7.85
2022-11-03T00:35:51.955Z,7.84
2022-11-03T00:37:54.666Z,7.86
2022-11-03T00:39:57.438Z,5.86
2022-11-03T00:42:01.567Z,3.67
2022-11-03T00:44:04.411Z,7.73
2022-11-03T00:46:08.782Z,7.74
2022-11-03T00:48:29.286Z,7.67
2022-11-03T00:50:34.739Z,5.18
2022-11-03T00:52:37.494Z,6.50
2022-11-03T00:54:44.795Z,7.49
2022-11-03T00:56:48.131Z,7.49
2022-11-03T00:58:54.661Z,5.42
2022-11-03T01:01:01.968Z,7.52
2022-11-03T01:03:05.195Z,7.49
2022-11-03T01:05:27.350Z,7.40
2022-11-03T01:07:30.133Z,2.18
2022-11-03T01:09:36.571Z,5.05
2022-11-03T01:11:44.046Z,7.28
2022-11-03T01:13:47.714Z,7.27
2022-11-03T01:15:51.805Z,7.32
2022-11-03T01:17:54.546Z,7.33
2022-11-03T01:19:57.420Z,2.64
2022-11-03T01:22:00.269Z,7.23
2022-11-03T01:24:03.784Z,3.28
2022-11-03T01:26:06.886Z,1.59
2022-11-03T01:28:09.594Z,6.87
2022-11-03T01:30:13.112Z,6.92
2022-11-03T01:32:17.251Z,6.94
2022-11-03T01:34:21.679Z,6.89
2022-11-03T01:36:25.257Z,6.97
2022-11-03T01:38:28.039Z,7.01
2022-11-03T01:40:30.830Z,7.01
2022-11-03T01:42:33.691Z,7.01
2022-11-03T01:44:40.690Z,7.01
2022-11-03T01:46:46.741Z,6.91
2022-11-03T01:49:04.094Z,6.89
2022-11-03T01:51:09.070Z,6.81
2022-11-03T01:53:13.741Z,6.78
2022-11-03T01:55:19.917Z,6.68
2022-11-03T01:57:26.515Z,6.65
2022-11-03T01:59:29.826Z,6.01
2022-11-03T02:01:33.148Z,6.57
2022-11-03T02:03:40.923Z,6.52
2022-11-03T02:05:46.746Z,6.51
2022-11-03T02:07:54.487Z,6.22
2022-11-03T02:09:57.198Z,6.30
2022-11-03T02:12:09.356Z,6.43
2022-11-03T02:14:13.663Z,2.55
2022-11-03T02:16:16.976Z,1.68
2022-11-03T02:18:23.742Z,6.57
2022-11-03T02:20:29.719Z,6.59
2022-11-03T02:23:14.981Z,6.71
2022-11-03T02:25:33.589Z,5.39
2022-11-03T02:27:36.478Z,6.73
2022-11-03T02:29:39.249Z,0.87
2022-11-03T02:31:44.481Z,6.86
2022-11-03T02:33:52.825Z,4.01
2022-11-03T02:36:00.853Z,7.00
2022-11-03T02:38:07.299Z,7.08
2022-11-03T02:40:14.885Z,5.25
2022-11-03T02:42:20.959Z,7.14
2022-11-03T02:44:25.509Z,6.82
2022-11-03T02:46:31.534Z,6.98
2022-11-03T02:48:34.282Z,7.03
2022-11-03T02:50:36.985Z,7.05
2022-11-03T02:52:41.928Z,5.73
2022-11-03T02:54:47.376Z,6.93
2022-11-03T02:56:53.535Z,6.78
2022-11-03T02:59:02.566Z,5.48
2022-11-03T03:01:15.125Z,6.74
2022-11-03T03:03:24.815Z,6.75
2022-11-03T03:05:31.057Z,6.64
2022-11-03T03:07:37.086Z,6.77
2022-11-03T03:09:44.660Z,6.80
2022-11-03T03:11:49.898Z,6.82
2022-11-03T03:13:52.660Z,6.05
2022-11-03T03:16:07.670Z,6.79
2022-11-03T03:18:17.355Z,6.77
2022-11-03T03:20:24.364Z,6.75
2022-11-03T03:22:33.051Z,6.71
2022-11-03T03:24:41.848Z,2.48
2022-11-03T03:26:49.545Z,6.61
2022-11-03T03:28:57.470Z,6.59
2022-11-03T03:31:04.326Z,6.58
2022-11-03T03:33:09.794Z,6.53
2022-11-03T03:35:18.673Z,6.48
2022-11-03T03:37:24.373Z,5.16
2022-11-03T03:39:32.767Z,5.04
2022-11-03T03:41:38.266Z,6.40
2022-11-03T03:43:43.038Z,6.49
2022-11-03T03:45:49.667Z,6.55
2022-11-03T03:47:57.667Z,6.60
2022-11-03T03:50:01.714Z,6.69
2022-11-03T03:52:04.804Z,6.72
2022-11-03T03:54:07.591Z,4.93
2022-11-03T03:56:10.448Z,6.82
2022-11-03T03:58:15.177Z,6.81
2022-11-03T04:00:19.377Z,6.87
2022-11-03T04:02:22.331Z,6.80
2022-11-03T04:04:26.542Z,6.76
2022-11-03T04:06:29.252Z,6.71
2022-11-03T04:08:31.967Z,5.39
2022-11-03T04:10:34.712Z,6.69
2022-11-03T04:13:03.464Z,6.66
2022-11-03T04:15:24.261Z,5.35
2022-11-03T04:17:44.898Z,6.60
2022-11-03T04:20:06.718Z,5.65
2022-11-03T04:22:18.644Z,5.69
2022-11-03T04:24:21.422Z,6.57
2022-11-03T04:26:24.304Z,6.58
2022-11-03T04:28:27.131Z,6.57
2022-11-03T04:30:29.883Z,5.28
2022-11-03T04:32:32.777Z,1.64
2022-11-03T04:34:35.536Z,1.49
2022-11-03T04:36:39.646Z,6.51
2022-11-03T04:38:44.767Z,5.93
2022-11-03T04:40:52.129Z,5.67
2022-11-03T04:42:58.708Z,6.48
2022-11-03T04:45:03.251Z,6.44
2022-11-03T04:47:12.155Z,6.30
2022-11-03T04:49:21.989Z,4.20
2022-11-03T04:51:27.926Z,6.22
2022-11-03T04:53:34.125Z,6.23
2022-11-03T04:55:36.963Z,2.43
2022-11-03T04:57:40.608Z,0.96
2022-11-03T04:59:46.097Z,6.09
2022-11-03T05:01:49.047Z,0.68
2022-11-03T05:03:53.736Z,6.14
2022-11-03T05:05:57.328Z,1.98
2022-11-03T05:08:00.307Z,5.28
2022-11-03T05:10:07.418Z,6.14
2022-11-03T05:12:11.104Z,6.21
2022-11-03T05:14:17.065Z,5.12
2022-11-03T05:16:21.390Z,6.30
2022-11-03T05:18:27.906Z,5.36
2022-11-03T05:20:36.407Z,2.92
2022-11-03T05:22:39.404Z,4.03
2022-11-03T05:24:42.537Z,6.27
2022-11-03T05:26:46.844Z,6.22
2022-11-03T05:28:53.208Z,0.87
2022-11-03T05:30:57.075Z,6.24
2022-11-03T05:33:00.003Z,6.27
2022-11-03T05:35:03.502Z,6.32
2022-11-03T05:37:26.164Z,6.40
2022-11-03T05:39:31.814Z,6.41
2022-11-03T05:41:36.260Z,6.42
2022-11-03T05:43:40.444Z,5.14
2022-11-03T05:45:43.443Z,6.42
2022-11-03T05:47:46.632Z,5.08
2022-11-03T05:49:50.186Z,6.31
2022-11-03T05:51:52.836Z,6.34
2022-11-03T05:53:58.938Z,1.67
2022-11-03T05:56:04.986Z,5.87
2022-11-03T05:58:19.177Z,6.36
2022-11-03T06:00:34.381Z,6.37
2022-11-03T06:02:39.790Z,6.25
2022-11-03T06:04:42.598Z,6.11
2022-11-03T06:06:51.788Z,6.18
2022-11-03T06:08:54.528Z,6.06
2022-11-03T06:10:59.378Z,0.85
2022-11-03T06:13:05.754Z,6.13
2022-11-03T06:15:21.353Z,-2.12
2022-11-03T06:17:27.624Z,6.13
2022-11-03T06:19:32.381Z,5.97
2022-11-03T06:21:35.126Z,4.46
2022-11-03T06:23:38.930Z,4.81
2022-11-03T06:25:43.393Z,5.92
2022-11-03T06:27:46.266Z,5.99
2022-11-03T06:29:51.799Z,6.04
2022-11-03T06:31:57.887Z,0.63
2022-11-03T06:34:03.083Z,5.99
2022-11-03T06:36:16.300Z,6.34
2022-11-03T06:38:23.129Z,6.42
2022-11-03T06:40:34.840Z,6.49
2022-11-03T06:42:39.805Z,0.87
2022-11-03T06:44:44.821Z,5.69
2022-11-03T06:46:47.522Z,6.67
2022-11-03T06:48:50.987Z,6.73
2022-11-03T06:50:56.009Z,4.74
2022-11-03T06:53:00.480Z,0.75
2022-11-03T06:55:21.544Z,6.89
2022-11-03T06:57:24.218Z,6.92
2022-11-03T06:59:26.929Z,7.02
2022-11-03T07:01:32.454Z,5.74
2022-11-03T07:03:37.836Z,7.15
2022-11-03T07:05:41.325Z,4.17
2022-11-03T07:07:45.374Z,7.25
2022-11-03T07:09:48.113Z,1.78
2022-11-03T07:11:53.114Z,7.22
2022-11-03T07:13:58.499Z,5.87
2022-11-03T07:16:01.560Z,7.30
2022-11-03T07:18:14.081Z,4.25
2022-11-03T07:20:18.024Z,6.11
2022-11-03T07:22:24.583Z,7.38
2022-11-03T07:24:31.342Z,7.37
2022-11-03T07:26:35.429Z,6.34
2022-11-03T07:28:39.895Z,7.39
2022-11-03T07:30:43.653Z,7.46
2022-11-03T07:32:47.051Z,1.69
2022-11-03T07:34:53.518Z,7.60
2022-11-03T07:36:59.099Z,7.72
2022-11-03T07:39:03.198Z,6.86
2022-11-03T07:41:13.550Z,7.86
2022-11-03T07:43:19.408Z,7.95
2022-11-03T07:45:37.051Z,5.27
2022-11-03T07:47:39.797Z,8.15
2022-11-03T07:49:43.574Z,5.13
2022-11-03T07:51:46.658Z,7.01
2022-11-03T07:53:52.099Z,8.22
2022-11-03T07:55:56.811Z,8.28
2022-11-03T07:58:01.574Z,8.35
2022-11-03T08:00:10.396Z,8.47
2022-11-03T08:02:30.799Z,8.55
2022-11-03T08:04:36.343Z,8.59
2022-11-03T08:06:39.055Z,3.91
2022-11-03T08:08:41.788Z,8.74
2022-11-03T08:10:44.474Z,8.82
2022-11-03T08:12:47.139Z,8.87
2022-11-03T08:14:51.485Z,8.93
2022-11-03T08:16:54.279Z,7.67
2022-11-03T08:18:56.956Z,8.87
2022-11-03T08:20:59.661Z,8.92
2022-11-03T08:23:24.446Z,8.94
2022-11-03T08:25:25.113Z,9.04
2022-11-03T08:27:27.984Z,9.16
2022-11-03T08:29:30.722Z,9.28
2022-11-03T08:31:34.804Z,9.35
2022-11-03T08:33:37.515Z,9.34
2022-11-03T08:35:40.424Z,9.48
2022-11-03T08:37:43.329Z,9.51
2022-11-03T08:39:46.038Z,9.55
2022-11-03T08:41:48.771Z,9.57
2022-11-03T08:43:51.477Z,9.62
2022-11-03T08:45:54.581Z,7.32
2022-11-03T08:47:58.743Z,9.83
2022-11-03T08:50:01.903Z,6.43
2022-11-03T08:52:04.962Z,9.99
2022-11-03T08:54:07.716Z,10.07
2022-11-03T08:56:13.006Z,9.95
2022-11-03T08:58:17.583Z,10.20
2022-11-03T09:00:20.519Z,10.22
2022-11-03T09:02:23.498Z,10.25
2022-11-03T09:04:27.610Z,10.33
2022-11-03T09:06:30.236Z,10.41
2022-11-03T09:10:55.648Z,10.53
2022-11-03T09:12:58.364Z,5.92
2022-11-03T09:15:01.073Z,9.54
2022-11-03T09:19:11.362Z,8.66
2022-11-03T09:21:15.526Z,10.62
2022-11-03T09:23:18.235Z,10.66
2022-11-03T09:25:21.149Z,10.68
2022-11-03T09:27:23.923Z,10.69
2022-11-03T09:29:30.039Z,10.71
2022-11-03T09:31:39.166Z,10.60
2022-11-03T09:33:41.975Z,10.72
2022-11-03T09:35:44.715Z,10.77
2022-11-03T09:37:48.772Z,5.98
2022-11-03T09:39:52.452Z,10.72
2022-11-03T09:41:59.162Z,10.78
2022-11-03T09:44:02.271Z,10.79
2022-11-03T09:46:05.072Z,10.87
2022-11-03T09:48:11.238Z,10.88
2022-11-03T09:50:17.393Z,10.98
2022-11-03T09:52:24.138Z,10.99
2022-11-03T09:54:29.724Z,11.07
2022-11-03T09:56:32.880Z,11.13
2022-11-03T09:58:35.589Z,11.15
2022-11-03T10:00:38.557Z,11.21
2022-11-03T10:02:43.262Z,11.26
2022-11-03T10:04:46.192Z,11.18
2022-11-03T10:06:48.867Z,11.27
2022-11-03T10:08:51.581Z,10.04
2022-11-03T10:10:56.030Z,11.48
2022-11-03T10:13:00.857Z,11.71
2022-11-03T10:15:03.599Z,11.80
2022-11-03T10:17:06.502Z,11.91
2022-11-03T10:19:10.715Z,12.08
2022-11-03T10:21:17.331Z,12.26
2022-11-03T10:23:20.044Z,12.41
2022-11-03T10:25:37.704Z,12.56
2022-11-03T10:27:41.765Z,11.90
2022-11-03T10:29:48.429Z,9.01
2022-11-03T10:31:56.821Z,12.85
2022-11-03T10:33:59.532Z,12.89
2022-11-03T10:36:03.409Z,13.02
2022-11-03T10:38:25.446Z,10.72
2022-11-03T10:40:53.015Z,13.39
2022-11-03T10:43:00.433Z,13.64
2022-11-03T10:45:17.272Z,13.66
2022-11-03T10:47:33.707Z,13.81
2022-11-03T10:49:40.904Z,13.65
2022-11-03T10:51:49.283Z,13.65
2022-11-03T10:53:52.030Z,13.64
2022-11-03T10:55:55.690Z,13.65
2022-11-03T10:58:00.651Z,13.26
2022-11-03T11:00:04.095Z,13.65
2022-11-03T11:02:16.767Z,13.72
2022-11-03T11:04:21.857Z,13.71
2022-11-03T11:06:27.075Z,13.62
2022-11-03T11:08:29.814Z,13.60
2022-11-03T11:10:32.640Z,12.75
2022-11-03T11:12:35.610Z,11.65
2022-11-03T11:14:52.766Z,13.66
2022-11-03T11:16:57.065Z,13.68
2022-11-03T11:19:03.411Z,13.76
2022-11-03T11:21:49.461Z,13.79
2022-11-03T11:23:53.266Z,13.84
2022-11-03T11:26:15.358Z,13.94
2022-11-03T11:28:20.051Z,13.95
2022-11-03T11:31:02.425Z,14.02
2022-11-03T11:33:22.598Z,13.97
2022-11-03T11:36:09.832Z,14.06
2022-11-03T11:38:45.579Z,14.11
2022-11-03T11:40:52.090Z,12.42
2022-11-03T11:43:27.976Z,14.09
2022-11-03T11:46:07.801Z,14.12
2022-11-03T11:48:19.417Z,14.25
2022-11-03T11:50:32.509Z,14.30
2022-11-03T11:52:40.476Z,14.29
2022-11-03T11:54:44.111Z,14.37
2022-11-03T11:56:49.653Z,13.77
2022-11-03T11:58:54.928Z,14.44
2022-11-03T12:01:00.903Z,14.44
2022-11-03T12:03:06.822Z,14.44
2022-11-03T12:05:21.829Z,14.44
2022-11-03T12:07:33.440Z,14.39
2022-11-03T12:09:36.155Z,14.34
2022-11-03T12:11:45.926Z,14.25
2022-11-03T12:13:52.555Z,14.29
2022-11-03T12:15:56.545Z,14.39
2022-11-03T12:17:59.276Z,14.41
2022-11-03T12:20:01.969Z,14.41
2022-11-03T12:22:07.462Z,14.42
2022-11-03T12:24:47.993Z,14.47
2022-11-03T12:26:50.756Z,14.51
2022-11-03T12:28:53.430Z,14.50
2022-11-03T12:30:56.162Z,9.83
2022-11-03T12:32:58.826Z,14.27
2022-11-03T12:35:01.563Z,14.41
2022-11-03T12:37:04.267Z,14.46
2022-11-03T12:39:08.568Z,14.47
2022-11-03T12:41:24.684Z,14.41
2022-11-03T12:43:27.421Z,14.40
2022-11-03T12:45:30.095Z,14.43
2022-11-03T12:47:32.825Z,14.47
2022-11-03T12:49:36.324Z,14.50
2022-11-03T12:51:39.042Z,14.48
2022-11-03T12:53:42.022Z,14.52
2022-11-03T12:55:46.046Z,14.51
2022-11-03T12:57:48.785Z,14.57
2022-11-03T12:59:52.275Z,14.59
2022-11-03T13:01:55.141Z,14.60
2022-11-03T13:03:57.878Z,14.61
2022-11-03T13:06:01.401Z,14.63
2022-11-03T13:08:04.274Z,14.67
2022-11-03T13:10:07.955Z,14.66
2022-11-03T13:12:31.397Z,14.63
2022-11-03T13:14:34.102Z,14.58
2022-11-03T13:16:36.839Z,14.52
2022-11-03T13:18:39.593Z,14.38
2022-11-03T13:20:44.193Z,14.25
2022-11-03T13:22:46.926Z,13.47
2022-11-03T13:24:49.667Z,12.18
2022-11-03T13:26:52.420Z,13.99
2022-11-03T13:28:56.489Z,13.27
2022-11-03T13:30:59.354Z,13.83
2022-11-03T13:33:02.164Z,13.52
2022-11-03T13:35:08.221Z,11.86
2022-11-03T13:37:15.231Z,12.80
2022-11-03T13:39:17.992Z,13.56
2022-11-03T13:41:20.758Z,13.61
2022-11-03T13:43:23.494Z,13.56
2022-11-03T13:45:27.993Z,13.55
2022-11-03T13:47:44.402Z,13.53
2022-11-03T13:50:13.003Z,12.64
2022-11-03T13:52:16.481Z,13.51
2022-11-03T14:01:29.371Z,11.24
2022-11-03T14:05:55.103Z,13.47
2022-11-03T14:07:57.882Z,13.42
2022-11-03T14:10:03.764Z,9.90
2022-11-03T14:12:25.351Z,13.39
2022-11-03T14:14:28.096Z,13.38
2022-11-03T14:16:32.222Z,13.32
2022-11-03T14:18:35.009Z,13.31
2022-11-03T14:20:37.714Z,13.24
2022-11-03T14:22:40.827Z,13.29
2022-11-03T14:24:44.389Z,13.29
2022-11-03T14:26:47.156Z,12.23
2022-11-03T14:28:49.857Z,13.21
2022-11-03T14:30:52.606Z,13.24
2022-11-03T14:32:59.534Z,12.29
2022-11-03T14:35:02.613Z,13.12
2022-11-03T14:37:05.765Z,13.16
2022-11-03T14:39:08.591Z,12.69
2022-11-03T14:41:28.865Z,11.95
2022-11-03T14:43:35.139Z,12.96
2022-11-03T14:45:39.915Z,13.03
2022-11-03T14:47:45.272Z,13.03
2022-11-03T14:49:49.415Z,12.17
2022-11-03T14:51:52.377Z,12.69
2022-11-03T14:53:55.219Z,12.49
2022-11-03T14:55:57.932Z,12.71
2022-11-03T14:58:00.657Z,12.74
2022-11-03T15:00:03.888Z,12.65
2022-11-03T15:02:07.211Z,12.70
2022-11-03T15:04:10.075Z,12.62
2022-11-03T15:06:14.417Z,12.43
2022-11-03T15:08:19.792Z,12.30
2022-11-03T15:10:22.505Z,11.86
2022-11-03T15:12:25.282Z,10.99
2022-11-03T15:14:28.063Z,8.23
2022-11-03T15:16:30.974Z,12.56
2022-11-03T15:18:33.754Z,12.77
2022-11-03T15:20:36.502Z,14.13
2022-11-03T15:25:21.737Z,14.45
2022-11-03T15:27:26.034Z,14.88
2022-11-03T15:29:28.769Z,14.00
2022-11-03T15:31:31.464Z,14.67
2022-11-03T15:33:34.174Z,14.06
2022-11-03T15:35:36.914Z,11.17
2022-11-03T15:37:42.247Z,7.63
2022-11-03T15:39:45.083Z,13.63
2022-11-03T15:41:47.763Z,13.19
2022-11-03T15:43:51.341Z,13.28
2022-11-03T15:45:53.992Z,13.16
2022-11-03T15:48:06.961Z,13.10
2022-11-03T15:50:11.408Z,12.18
2022-11-03T15:52:14.098Z,13.03
2022-11-03T15:54:18.135Z,12.96
2022-11-03T15:56:20.793Z,12.94
2022-11-03T15:58:23.475Z,12.55
2022-11-03T16:00:26.437Z,12.32
2022-11-03T16:02:41.428Z,12.41
2022-11-03T16:04:45.078Z,11.66
2022-11-03T16:07:08.693Z,12.50
2022-11-03T16:09:10.546Z,12.24
2022-11-03T16:11:14.656Z,12.00
2022-11-03T16:13:17.349Z,11.88
2022-11-03T16:15:20.001Z,12.12
2022-11-03T16:17:22.916Z,12.25
2022-11-03T16:19:25.592Z,12.33
2022-11-03T16:21:28.674Z,6.88
2022-11-03T16:23:32.078Z,12.32
2022-11-03T16:25:34.861Z,12.25
2022-11-03T16:27:38.951Z,12.31
2022-11-03T16:29:41.675Z,12.35
2022-11-03T16:31:44.447Z,12.10
2022-11-03T16:33:47.163Z,12.11
2022-11-03T16:35:49.980Z,12.12
2022-11-03T16:37:52.888Z,12.21
2022-11-03T16:39:55.663Z,8.85
2022-11-03T16:41:58.363Z,12.06
2022-11-03T16:44:02.462Z,11.97
2022-11-03T16:46:05.200Z,11.78
2022-11-03T16:48:08.551Z,11.50
2022-11-03T16:50:11.561Z,11.26
2022-11-03T16:52:14.310Z,11.20
2022-11-03T16:54:17.277Z,9.80
2022-11-03T16:56:20.020Z,3.62
2022-11-03T16:58:22.742Z,11.41
2022-11-03T17:00:26.895Z,11.63
2022-11-03T17:02:29.682Z,11.57
2022-11-03T17:04:32.889Z,11.47
2022-11-03T17:06:35.646Z,11.63
2022-11-03T17:08:52.360Z,11.02
2022-11-03T17:10:55.823Z,11.39
2022-11-03T17:12:58.844Z,11.54
2022-11-03T17:15:01.575Z,11.34
2022-11-03T17:17:05.711Z,11.49
2022-11-03T17:19:09.210Z,11.75
2022-11-03T17:21:11.891Z,11.93
2022-11-03T17:23:14.645Z,10.42
2022-11-03T17:25:17.417Z,12.06
2022-11-03T17:27:22.831Z,7.74
2022-11-03T17:29:34.416Z,12.08
2022-11-03T17:31:37.110Z,11.99
2022-11-03T17:33:41.223Z,11.48
2022-11-03T17:35:46.097Z,10.44
2022-11-03T17:37:49.192Z,11.45
2022-11-03T17:39:52.279Z,10.16
2022-11-03T17:41:55.042Z,12.20
2022-11-03T17:43:57.818Z,9.33
2022-11-03T17:46:00.849Z,11.59
2022-11-03T17:48:03.615Z,12.24
2022-11-03T17:50:09.292Z,11.00
2022-11-03T17:52:15.500Z,10.95
2022-11-03T17:54:18.402Z,12.15
2022-11-03T17:56:30.157Z,9.47
2022-11-03T17:58:35.648Z,6.10
2022-11-03T18:00:38.738Z,12.01
2022-11-03T18:02:41.862Z,11.93
2022-11-03T18:04:44.895Z,11.93
2022-11-03T18:06:48.980Z,10.76
2022-11-03T18:08:51.692Z,11.85
2022-11-03T18:10:56.301Z,11.82
2022-11-03T18:13:17.828Z,11.79
2022-11-03T18:15:23.340Z,11.83
2022-11-03T18:17:26.114Z,11.84
2022-11-03T18:19:29.010Z,11.84
2022-11-03T18:21:31.932Z,11.82
2022-11-03T18:23:36.798Z,11.87
2022-11-03T18:25:39.582Z,11.85
2022-11-03T18:27:43.080Z,10.70
2022-11-03T18:29:45.885Z,11.76
2022-11-03T18:31:50.760Z,6.38
2022-11-03T18:33:54.750Z,10.42
2022-11-03T18:35:58.356Z,11.46
2022-11-03T18:38:01.516Z,11.65
2022-11-03T18:40:06.432Z,11.70
2022-11-03T18:42:14.276Z,8.43
2022-11-03T18:44:20.123Z,11.81
2022-11-03T18:46:22.883Z,11.79
2022-11-03T18:48:25.614Z,10.43
2022-11-03T18:50:28.408Z,10.07
2022-11-03T18:52:31.254Z,10.84
2022-11-03T18:54:36.098Z,11.21
2022-11-03T18:56:40.444Z,11.32
2022-11-03T18:58:43.346Z,11.41
2022-11-03T19:00:48.360Z,10.26
2022-11-03T19:02:51.448Z,8.85
2022-11-03T19:04:54.266Z,3.89
2022-11-03T19:06:58.465Z,11.52
2022-11-03T19:09:01.826Z,11.50
2022-11-03T19:11:04.967Z,10.83
2022-11-03T19:13:15.363Z,11.44
2022-11-03T19:15:20.577Z,11.44
2022-11-03T19:17:25.264Z,11.37
2022-11-03T19:19:28.468Z,11.27
2022-11-03T19:21:31.286Z,11.29
2022-11-03T19:23:34.694Z,11.25
2022-11-03T19:25:42.838Z,9.23
2022-11-03T19:27:48.993Z,11.28
2022-11-03T19:29:53.710Z,8.71
2022-11-03T19:31:56.919Z,11.32
2022-11-03T19:34:00.117Z,11.23
2022-11-03T19:36:02.880Z,10.80
2022-11-03T19:38:10.397Z,11.02
2022-11-03T19:40:15.857Z,8.93
2022-11-03T19:42:28.219Z,11.01
2022-11-03T19:44:30.986Z,6.40
2022-11-03T19:46:35.149Z,7.53
2022-11-03T19:48:38.004Z,6.28
2022-11-03T19:50:40.798Z,5.35
2022-11-03T19:52:43.778Z,11.11
2022-11-03T19:54:48.884Z,11.21
2022-11-03T19:56:52.069Z,11.19
2022-11-03T19:58:54.775Z,6.71
2022-11-03T20:00:58.094Z,5.94
2022-11-03T20:03:03.172Z,10.31
2022-11-03T20:05:06.757Z,10.02
2022-11-03T20:07:09.854Z,11.27
2022-11-03T20:09:16.985Z,11.24
2022-11-03T20:11:20.236Z,11.14
2022-11-03T20:13:24.865Z,9.13
2022-11-03T20:15:27.670Z,11.19
2022-11-03T20:17:30.412Z,7.80
2022-11-03T20:19:34.530Z,9.88
2022-11-03T20:21:37.395Z,9.89
2022-11-03T20:23:40.269Z,11.10
2022-11-03T20:25:43.581Z,11.10
2022-11-03T20:27:46.403Z,5.79
2022-11-03T20:29:49.294Z,9.10
2022-11-03T20:31:51.997Z,10.92
2022-11-03T20:33:54.788Z,10.98
2022-11-03T20:35:59.512Z,10.37
2022-11-03T20:38:02.999Z,10.93
2022-11-03T20:40:11.939Z,10.86
2022-11-03T20:42:21.183Z,10.77
2022-11-03T20:44:24.050Z,10.76
2022-11-03T20:46:29.125Z,5.66
2022-11-03T20:48:31.875Z,8.92
2022-11-03T20:50:41.587Z,10.78
2022-11-03T20:52:48.010Z,10.74
2022-11-03T20:54:51.881Z,6.10
2022-11-03T20:56:54.644Z,9.33
2022-11-03T20:58:58.211Z,5.49
2022-11-03T21:01:01.784Z,7.36
2022-11-03T21:03:31.413Z,9.15
2022-11-03T21:05:39.021Z,10.84
2022-11-03T21:07:45.010Z,10.88
2022-11-03T21:09:49.116Z,10.86
2022-11-03T21:11:53.573Z,10.93
2022-11-03T21:13:58.396Z,10.93
2022-11-03T21:16:24.458Z,10.99
2022-11-03T21:18:45.271Z,10.99
2022-11-03T21:20:48.272Z,10.97
2022-11-03T21:22:52.965Z,8.91
2022-11-03T21:24:58.339Z,11.02
2022-11-03T21:27:01.099Z,10.92
2022-11-03T21:29:03.841Z,10.96
2022-11-03T21:31:07.320Z,10.93
2022-11-03T21:33:10.146Z,10.68
2022-11-03T21:35:15.898Z,10.94
2022-11-03T21:37:18.730Z,10.21
2022-11-03T21:39:21.465Z,10.94
2022-11-03T21:41:42.964Z,10.96
2022-11-03T21:44:03.308Z,10.83
2022-11-03T21:46:07.975Z,10.91
2022-11-03T21:48:28.359Z,10.83
2022-11-03T21:50:31.114Z,10.71
2022-11-03T21:52:33.881Z,9.18
2022-11-03T21:54:36.658Z,8.97
2022-11-03T21:56:40.716Z,9.35
2022-11-03T21:58:44.183Z,10.86
2022-11-03T22:00:47.600Z,10.56
2022-11-03T22:02:50.519Z,8.46
2022-11-03T22:04:55.091Z,10.22
2022-11-03T22:07:00.190Z,10.08
2022-11-03T22:09:03.012Z,10.08
2022-11-03T22:11:24.759Z,10.17
2022-11-03T22:13:28.923Z,10.45
2022-11-03T22:15:49.304Z,10.45
2022-11-03T22:17:52.130Z,10.53
2022-11-03T22:20:12.571Z,9.81
2022-11-03T22:22:33.363Z,10.80
2022-11-03T22:24:53.696Z,10.89
2022-11-03T22:26:57.717Z,10.96
2022-11-03T22:29:19.528Z,8.90
2022-11-03T22:31:39.862Z,10.87
2022-11-03T22:33:56.576Z,8.50
2022-11-03T22:36:21.593Z,10.68
2022-11-03T22:38:45.103Z,10.46
2022-11-03T22:41:05.915Z,8.93
2022-11-03T22:43:27.468Z,10.20
2022-11-03T22:45:49.171Z,9.93
2022-11-03T22:47:56.977Z,2.53
2022-11-03T22:50:00.434Z,10.07
2022-11-03T22:52:04.116Z,10.06
2022-11-03T22:54:12.029Z,9.99
2022-11-03T22:56:15.150Z,10.07
2022-11-03T22:58:18.023Z,7.34
2022-11-03T23:00:22.247Z,9.67
2022-11-03T23:02:26.543Z,9.01
2022-11-03T23:04:29.450Z,10.30
2022-11-03T23:06:36.554Z,2.66
2022-11-03T23:08:41.710Z,10.13
2022-11-03T23:10:44.428Z,8.81
2022-11-03T23:12:47.244Z,8.15
2022-11-03T23:15:06.811Z,10.00
2022-11-03T23:17:09.583Z,4.91
2022-11-03T23:19:32.758Z,9.87
2022-11-03T23:21:36.284Z,9.96
2022-11-03T23:23:58.006Z,8.61
2022-11-03T23:26:00.805Z,10.00
2022-11-03T23:28:03.596Z,10.15
2022-11-03T23:30:07.258Z,10.25
2022-11-03T23:32:10.087Z,7.48
2022-11-03T23:34:15.204Z,10.47
2022-11-03T23:36:18.521Z,10.50
2022-11-03T23:38:21.261Z,10.59
2022-11-03T23:40:24.220Z,10.37
2022-11-03T23:42:26.991Z,10.45
2022-11-03T23:44:50.089Z,10.14
2022-11-03T23:47:10.348Z,4.90
2022-11-03T23:49:14.776Z,7.53
2022-11-03T23:51:19.379Z,3.77
2022-11-03T23:53:22.099Z,10.13
2022-11-03T23:55:24.827Z,5.88
2022-11-03T23:57:45.234Z,9.01
2022-11-03T23:59:47.934Z,10.08
